sensor_id;sensor_type;location;lat;lon;timestamp;P1;durP1;ratioP1;P2;durP2;ratioP2
66429;SDS011;53242;51.694;10.006;2023-08-31T00:00:46;9.68;;;3.38;;
66429;SDS011;53242;51.694;10.006;2023-08-31T00:03:08;8.57;;;3.58;;
66429;SDS011;53242;51.694;10.006;2023-08-31T00:05:36;9.65;;;4.18;;
66429;SDS011;53242;51.694;10.006;2023-08-31T00:08:03;8.25;;;3.90;;
66429;SDS011;53242;51.694;10.006;2023-08-31T00:10:25;8.68;;;3.97;;
66429;SDS011;53242;51.694;10.006;2023-08-31T00:12:48;8.50;;;3.83;;
66429;SDS011;53242;51.694;10.006;2023-08-31T00:15:11;9.85;;;3.65;;
66429;SDS011;53242;51.694;10.006;2023-08-31T00:17:33;10.35;;;4.30;;
66429;SDS011;53242;51.694;10.006;2023-08-31T00:19:56;10.43;;;4.15;;
66429;SDS011;53242;51.694;10.006;2023-08-31T00:22:18;11.18;;;4.30;;
66429;SDS011;53242;51.694;10.006;2023-08-31T00:24:40;10.07;;;4.40;;
66429;SDS011;53242;51.694;10.006;2023-08-31T00:27:04;9.77;;;4.72;;
66429;SDS011;53242;51.694;10.006;2023-08-31T00:29:29;10.35;;;4.20;;
66429;SDS011;53242;51.694;10.006;2023-08-31T00:31:51;10.05;;;4.80;;
66429;SDS011;53242;51.694;10.006;2023-08-31T00:34:15;11.13;;;4.68;;
66429;SDS011;53242;51.694;10.006;2023-08-31T00:39:03;10.20;;;4.78;;
66429;SDS011;53242;51.694;10.006;2023-08-31T00:41:34;10.23;;;5.18;;
66429;SDS011;53242;51.694;10.006;2023-08-31T00:43:56;9.85;;;4.75;;
66429;SDS011;53242;51.694;10.006;2023-08-31T00:46:19;12.48;;;4.85;;
66429;SDS011;53242;51.694;10.006;2023-08-31T00:48:42;11.23;;;5.07;;
66429;SDS011;53242;51.694;10.006;2023-08-31T00:51:05;11.40;;;4.85;;
66429;SDS011;53242;51.694;10.006;2023-08-31T00:53:29;12.93;;;5.88;;
66429;SDS011;53242;51.694;10.006;2023-08-31T00:55:52;10.80;;;5.10;;
66429;SDS011;53242;51.694;10.006;2023-08-31T00:58:14;12.68;;;4.85;;
66429;SDS011;53242;51.694;10.006;2023-08-31T01:00:55;12.73;;;5.25;;
66429;SDS011;53242;51.694;10.006;2023-08-31T01:03:39;12.57;;;5.45;;
66429;SDS011;53242;51.694;10.006;2023-08-31T01:09:15;13.55;;;5.47;;
66429;SDS011;53242;51.694;10.006;2023-08-31T01:12:04;14.25;;;5.53;;
66429;SDS011;53242;51.694;10.006;2023-08-31T01:14:32;11.52;;;5.18;;
66429;SDS011;53242;51.694;10.006;2023-08-31T01:17:01;13.45;;;4.97;;
66429;SDS011;53242;51.694;10.006;2023-08-31T01:22:11;12.60;;;5.43;;
66429;SDS011;53242;51.694;10.006;2023-08-31T01:24:39;13.35;;;5.80;;
66429;SDS011;53242;51.694;10.006;2023-08-31T01:27:03;12.43;;;5.82;;
66429;SDS011;53242;51.694;10.006;2023-08-31T01:29:25;12.55;;;6.00;;
66429;SDS011;53242;51.694;10.006;2023-08-31T01:31:48;13.15;;;5.63;;
66429;SDS011;53242;51.694;10.006;2023-08-31T01:34:10;14.18;;;6.20;;
66429;SDS011;53242;51.694;10.006;2023-08-31T01:36:34;13.80;;;5.57;;
66429;SDS011;53242;51.694;10.006;2023-08-31T01:41:34;13.20;;;5.63;;
66429;SDS011;53242;51.694;10.006;2023-08-31T01:43:58;14.15;;;5.95;;
66429;SDS011;53242;51.694;10.006;2023-08-31T01:46:22;12.45;;;5.18;;
66429;SDS011;53242;51.694;10.006;2023-08-31T01:48:44;12.38;;;5.55;;
66429;SDS011;53242;51.694;10.006;2023-08-31T01:51:07;12.32;;;5.40;;
66429;SDS011;53242;51.694;10.006;2023-08-31T01:53:31;13.00;;;5.13;;
66429;SDS011;53242;51.694;10.006;2023-08-31T01:55:53;12.35;;;4.90;;
66429;SDS011;53242;51.694;10.006;2023-08-31T01:58:16;13.30;;;5.50;;
66429;SDS011;53242;51.694;10.006;2023-08-31T02:00:39;13.43;;;5.28;;
66429;SDS011;53242;51.694;10.006;2023-08-31T02:03:01;15.55;;;5.60;;
66429;SDS011;53242;51.694;10.006;2023-08-31T02:05:24;14.10;;;5.63;;
66429;SDS011;53242;51.694;10.006;2023-08-31T02:07:48;12.90;;;4.93;;
66429;SDS011;53242;51.694;10.006;2023-08-31T02:10:12;12.73;;;4.72;;
66429;SDS011;53242;51.694;10.006;2023-08-31T02:12:34;11.70;;;4.90;;
66429;SDS011;53242;51.694;10.006;2023-08-31T02:17:21;11.90;;;4.82;;
66429;SDS011;53242;51.694;10.006;2023-08-31T02:19:44;11.63;;;4.53;;
66429;SDS011;53242;51.694;10.006;2023-08-31T02:22:06;13.02;;;5.38;;
66429;SDS011;53242;51.694;10.006;2023-08-31T02:24:29;13.05;;;5.35;;
66429;SDS011;53242;51.694;10.006;2023-08-31T02:26:52;12.63;;;5.13;;
66429;SDS011;53242;51.694;10.006;2023-08-31T02:29:14;10.65;;;4.60;;
66429;SDS011;53242;51.694;10.006;2023-08-31T02:31:36;14.32;;;4.72;;
66429;SDS011;53242;51.694;10.006;2023-08-31T02:34:00;12.15;;;4.72;;
66429;SDS011;53242;51.694;10.006;2023-08-31T02:36:23;16.00;;;5.45;;
66429;SDS011;53242;51.694;10.006;2023-08-31T02:38:46;11.85;;;4.95;;
66429;SDS011;53242;51.694;10.006;2023-08-31T02:41:09;15.57;;;5.38;;
66429;SDS011;53242;51.694;10.006;2023-08-31T02:43:32;11.95;;;4.93;;
66429;SDS011;53242;51.694;10.006;2023-08-31T02:45:58;12.65;;;5.10;;
66429;SDS011;53242;51.694;10.006;2023-08-31T02:48:24;13.23;;;5.85;;
66429;SDS011;53242;51.694;10.006;2023-08-31T02:50:47;12.70;;;5.40;;
66429;SDS011;53242;51.694;10.006;2023-08-31T02:53:09;10.88;;;4.88;;
66429;SDS011;53242;51.694;10.006;2023-08-31T02:55:32;11.05;;;5.07;;
66429;SDS011;53242;51.694;10.006;2023-08-31T02:57:55;13.55;;;5.20;;
66429;SDS011;53242;51.694;10.006;2023-08-31T03:00:18;18.08;;;5.57;;
66429;SDS011;53242;51.694;10.006;2023-08-31T03:02:43;14.05;;;5.32;;
66429;SDS011;53242;51.694;10.006;2023-08-31T03:05:06;15.13;;;5.25;;
66429;SDS011;53242;51.694;10.006;2023-08-31T03:07:28;10.68;;;4.95;;
66429;SDS011;53242;51.694;10.006;2023-08-31T03:09:51;14.75;;;6.30;;
66429;SDS011;53242;51.694;10.006;2023-08-31T03:12:13;11.65;;;5.78;;
66429;SDS011;53242;51.694;10.006;2023-08-31T03:14:36;12.18;;;4.50;;
66429;SDS011;53242;51.694;10.006;2023-08-31T03:16:58;13.80;;;5.10;;
66429;SDS011;53242;51.694;10.006;2023-08-31T03:19:21;11.70;;;4.43;;
66429;SDS011;53242;51.694;10.006;2023-08-31T03:21:43;13.95;;;5.05;;
66429;SDS011;53242;51.694;10.006;2023-08-31T03:24:06;12.85;;;5.40;;
66429;SDS011;53242;51.694;10.006;2023-08-31T03:26:28;11.90;;;5.28;;
66429;SDS011;53242;51.694;10.006;2023-08-31T03:28:51;12.52;;;5.05;;
66429;SDS011;53242;51.694;10.006;2023-08-31T03:31:14;12.65;;;5.47;;
66429;SDS011;53242;51.694;10.006;2023-08-31T03:33:37;15.98;;;6.38;;
66429;SDS011;53242;51.694;10.006;2023-08-31T03:36:00;14.77;;;5.45;;
66429;SDS011;53242;51.694;10.006;2023-08-31T03:38:25;12.57;;;5.50;;
66429;SDS011;53242;51.694;10.006;2023-08-31T03:40:54;14.23;;;5.28;;
66429;SDS011;53242;51.694;10.006;2023-08-31T03:43:17;12.88;;;5.05;;
66429;SDS011;53242;51.694;10.006;2023-08-31T03:49:25;11.23;;;4.88;;
66429;SDS011;53242;51.694;10.006;2023-08-31T03:51:48;14.38;;;5.45;;
66429;SDS011;53242;51.694;10.006;2023-08-31T03:54:10;12.00;;;5.25;;
66429;SDS011;53242;51.694;10.006;2023-08-31T03:56:35;12.07;;;5.00;;
66429;SDS011;53242;51.694;10.006;2023-08-31T03:58:58;14.50;;;5.78;;
66429;SDS011;53242;51.694;10.006;2023-08-31T04:01:20;16.00;;;4.72;;
66429;SDS011;53242;51.694;10.006;2023-08-31T04:03:44;13.57;;;6.07;;
66429;SDS011;53242;51.694;10.006;2023-08-31T04:06:07;14.85;;;5.78;;
66429;SDS011;53242;51.694;10.006;2023-08-31T04:08:29;14.57;;;6.28;;
66429;SDS011;53242;51.694;10.006;2023-08-31T04:10:51;14.45;;;5.65;;
66429;SDS011;53242;51.694;10.006;2023-08-31T04:13:14;13.77;;;6.10;;
66429;SDS011;53242;51.694;10.006;2023-08-31T04:15:36;18.05;;;6.15;;
66429;SDS011;53242;51.694;10.006;2023-08-31T04:17:59;15.18;;;5.45;;
66429;SDS011;53242;51.694;10.006;2023-08-31T04:20:21;14.07;;;5.53;;
66429;SDS011;53242;51.694;10.006;2023-08-31T04:22:44;13.90;;;5.80;;
66429;SDS011;53242;51.694;10.006;2023-08-31T04:25:06;15.38;;;5.63;;
66429;SDS011;53242;51.694;10.006;2023-08-31T04:27:29;15.68;;;5.90;;
66429;SDS011;53242;51.694;10.006;2023-08-31T04:29:53;14.27;;;5.50;;
66429;SDS011;53242;51.694;10.006;2023-08-31T04:32:15;14.25;;;6.30;;
66429;SDS011;53242;51.694;10.006;2023-08-31T04:34:38;14.82;;;6.53;;
66429;SDS011;53242;51.694;10.006;2023-08-31T04:37:00;18.75;;;6.13;;
66429;SDS011;53242;51.694;10.006;2023-08-31T04:39:23;15.98;;;6.18;;
66429;SDS011;53242;51.694;10.006;2023-08-31T04:41:45;14.38;;;6.03;;
66429;SDS011;53242;51.694;10.006;2023-08-31T04:44:07;13.65;;;6.00;;
66429;SDS011;53242;51.694;10.006;2023-08-31T04:46:30;14.55;;;6.22;;
66429;SDS011;53242;51.694;10.006;2023-08-31T04:48:52;14.43;;;6.07;;
66429;SDS011;53242;51.694;10.006;2023-08-31T04:53:57;15.80;;;6.53;;
66429;SDS011;53242;51.694;10.006;2023-08-31T04:56:19;16.05;;;6.32;;
66429;SDS011;53242;51.694;10.006;2023-08-31T04:58:42;16.20;;;6.10;;
66429;SDS011;53242;51.694;10.006;2023-08-31T05:01:04;15.48;;;6.82;;
66429;SDS011;53242;51.694;10.006;2023-08-31T05:03:26;13.95;;;5.70;;
66429;SDS011;53242;51.694;10.006;2023-08-31T05:05:49;16.52;;;6.03;;
66429;SDS011;53242;51.694;10.006;2023-08-31T05:08:11;16.13;;;5.82;;
66429;SDS011;53242;51.694;10.006;2023-08-31T05:10:34;16.05;;;6.38;;
66429;SDS011;53242;51.694;10.006;2023-08-31T05:12:56;14.18;;;5.90;;
66429;SDS011;53242;51.694;10.006;2023-08-31T05:15:19;13.75;;;5.35;;
66429;SDS011;53242;51.694;10.006;2023-08-31T05:17:41;11.00;;;4.68;;
66429;SDS011;53242;51.694;10.006;2023-08-31T05:20:03;10.75;;;4.15;;
66429;SDS011;53242;51.694;10.006;2023-08-31T05:22:26;8.73;;;3.85;;
66429;SDS011;53242;51.694;10.006;2023-08-31T05:24:49;8.95;;;4.63;;
66429;SDS011;53242;51.694;10.006;2023-08-31T05:27:11;11.40;;;4.18;;
66429;SDS011;53242;51.694;10.006;2023-08-31T05:29:34;9.15;;;4.07;;
66429;SDS011;53242;51.694;10.006;2023-08-31T05:31:56;9.48;;;4.10;;
66429;SDS011;53242;51.694;10.006;2023-08-31T05:34:21;10.40;;;4.43;;
66429;SDS011;53242;51.694;10.006;2023-08-31T05:36:44;8.63;;;3.63;;
66429;SDS011;53242;51.694;10.006;2023-08-31T05:39:07;8.48;;;3.85;;
66429;SDS011;53242;51.694;10.006;2023-08-31T05:41:30;8.73;;;3.72;;
66429;SDS011;53242;51.694;10.006;2023-08-31T05:43:53;8.82;;;3.70;;
66429;SDS011;53242;51.694;10.006;2023-08-31T05:46:15;10.57;;;3.75;;
66429;SDS011;53242;51.694;10.006;2023-08-31T05:48:38;9.45;;;4.13;;
66429;SDS011;53242;51.694;10.006;2023-08-31T05:51:00;9.45;;;4.25;;
66429;SDS011;53242;51.694;10.006;2023-08-31T05:53:22;11.02;;;5.03;;
66429;SDS011;53242;51.694;10.006;2023-08-31T05:55:45;9.65;;;3.83;;
66429;SDS011;53242;51.694;10.006;2023-08-31T05:58:07;10.07;;;4.18;;
66429;SDS011;53242;51.694;10.006;2023-08-31T06:00:30;11.88;;;4.32;;
66429;SDS011;53242;51.694;10.006;2023-08-31T06:02:53;10.98;;;4.53;;
66429;SDS011;53242;51.694;10.006;2023-08-31T06:05:15;11.63;;;4.93;;
66429;SDS011;53242;51.694;10.006;2023-08-31T06:07:38;10.52;;;4.43;;
66429;SDS011;53242;51.694;10.006;2023-08-31T06:10:01;12.00;;;4.68;;
66429;SDS011;53242;51.694;10.006;2023-08-31T06:12:25;9.73;;;4.45;;
66429;SDS011;53242;51.694;10.006;2023-08-31T06:14:50;12.02;;;4.78;;
66429;SDS011;53242;51.694;10.006;2023-08-31T06:17:12;13.02;;;4.82;;
66429;SDS011;53242;51.694;10.006;2023-08-31T06:19:35;11.32;;;5.20;;
66429;SDS011;53242;51.694;10.006;2023-08-31T06:21:58;11.07;;;5.28;;
66429;SDS011;53242;51.694;10.006;2023-08-31T06:24:21;13.13;;;5.80;;
66429;SDS011;53242;51.694;10.006;2023-08-31T06:26:43;13.95;;;5.97;;
66429;SDS011;53242;51.694;10.006;2023-08-31T06:29:05;14.50;;;5.70;;
66429;SDS011;53242;51.694;10.006;2023-08-31T06:31:30;13.35;;;6.25;;
66429;SDS011;53242;51.694;10.006;2023-08-31T06:33:52;12.93;;;6.18;;
66429;SDS011;53242;51.694;10.006;2023-08-31T06:36:14;15.63;;;6.22;;
66429;SDS011;53242;51.694;10.006;2023-08-31T06:38:37;15.90;;;6.15;;
66429;SDS011;53242;51.694;10.006;2023-08-31T06:41:01;15.55;;;6.57;;
66429;SDS011;53242;51.694;10.006;2023-08-31T06:43:24;13.70;;;5.97;;
66429;SDS011;53242;51.694;10.006;2023-08-31T06:45:48;14.05;;;6.63;;
66429;SDS011;53242;51.694;10.006;2023-08-31T06:48:11;16.00;;;7.03;;
66429;SDS011;53242;51.694;10.006;2023-08-31T06:50:33;13.50;;;5.53;;
66429;SDS011;53242;51.694;10.006;2023-08-31T06:55:19;12.80;;;5.43;;
66429;SDS011;53242;51.694;10.006;2023-08-31T06:57:42;14.15;;;6.13;;
66429;SDS011;53242;51.694;10.006;2023-08-31T07:00:05;13.43;;;5.82;;
66429;SDS011;53242;51.694;10.006;2023-08-31T07:02:30;13.32;;;6.50;;
66429;SDS011;53242;51.694;10.006;2023-08-31T07:04:52;15.13;;;6.88;;
66429;SDS011;53242;51.694;10.006;2023-08-31T07:07:15;13.32;;;6.30;;
66429;SDS011;53242;51.694;10.006;2023-08-31T07:09:37;15.32;;;6.43;;
66429;SDS011;53242;51.694;10.006;2023-08-31T07:11:59;15.52;;;5.93;;
66429;SDS011;53242;51.694;10.006;2023-08-31T07:14:23;13.00;;;5.18;;
66429;SDS011;53242;51.694;10.006;2023-08-31T07:16:46;13.45;;;6.00;;
66429;SDS011;53242;51.694;10.006;2023-08-31T07:19:08;13.57;;;4.75;;
66429;SDS011;53242;51.694;10.006;2023-08-31T07:21:31;12.25;;;4.50;;
66429;SDS011;53242;51.694;10.006;2023-08-31T07:23:54;11.40;;;4.78;;
66429;SDS011;53242;51.694;10.006;2023-08-31T07:26:16;10.93;;;4.57;;
66429;SDS011;53242;51.694;10.006;2023-08-31T07:28:39;12.70;;;4.43;;
66429;SDS011;53242;51.694;10.006;2023-08-31T07:31:04;10.52;;;4.53;;
66429;SDS011;53242;51.694;10.006;2023-08-31T07:33:28;11.38;;;4.63;;
66429;SDS011;53242;51.694;10.006;2023-08-31T07:35:52;10.18;;;4.78;;
66429;SDS011;53242;51.694;10.006;2023-08-31T07:38:14;11.32;;;4.55;;
66429;SDS011;53242;51.694;10.006;2023-08-31T07:40:37;10.05;;;4.50;;
66429;SDS011;53242;51.694;10.006;2023-08-31T07:42:59;11.10;;;4.90;;
66429;SDS011;53242;51.694;10.006;2023-08-31T07:45:22;12.52;;;5.25;;
66429;SDS011;53242;51.694;10.006;2023-08-31T07:47:44;10.32;;;3.80;;
66429;SDS011;53242;51.694;10.006;2023-08-31T07:50:06;9.00;;;3.75;;
66429;SDS011;53242;51.694;10.006;2023-08-31T07:52:29;8.52;;;3.60;;
66429;SDS011;53242;51.694;10.006;2023-08-31T07:54:51;8.48;;;4.28;;
66429;SDS011;53242;51.694;10.006;2023-08-31T07:57:14;9.63;;;4.07;;
66429;SDS011;53242;51.694;10.006;2023-08-31T07:59:36;8.20;;;3.28;;
66429;SDS011;53242;51.694;10.006;2023-08-31T08:02:01;9.20;;;3.38;;
66429;SDS011;53242;51.694;10.006;2023-08-31T08:04:23;10.43;;;3.28;;
66429;SDS011;53242;51.694;10.006;2023-08-31T08:06:49;8.88;;;3.55;;
66429;SDS011;53242;51.694;10.006;2023-08-31T08:09:11;9.20;;;3.20;;
66429;SDS011;53242;51.694;10.006;2023-08-31T08:11:34;7.30;;;3.50;;
66429;SDS011;53242;51.694;10.006;2023-08-31T08:13:57;6.40;;;2.95;;
66429;SDS011;53242;51.694;10.006;2023-08-31T08:16:19;7.70;;;3.47;;
66429;SDS011;53242;51.694;10.006;2023-08-31T08:18:41;7.13;;;3.25;;
66429;SDS011;53242;51.694;10.006;2023-08-31T08:21:04;7.25;;;3.42;;
66429;SDS011;53242;51.694;10.006;2023-08-31T08:23:26;6.50;;;3.13;;
66429;SDS011;53242;51.694;10.006;2023-08-31T08:25:49;7.45;;;3.00;;
66429;SDS011;53242;51.694;10.006;2023-08-31T08:28:11;7.97;;;3.03;;
66429;SDS011;53242;51.694;10.006;2023-08-31T08:30:33;6.30;;;2.90;;
66429;SDS011;53242;51.694;10.006;2023-08-31T08:32:56;8.68;;;3.30;;
66429;SDS011;53242;51.694;10.006;2023-08-31T08:35:19;9.13;;;3.35;;
66429;SDS011;53242;51.694;10.006;2023-08-31T08:37:41;6.35;;;2.83;;
66429;SDS011;53242;51.694;10.006;2023-08-31T08:40:04;7.15;;;3.15;;
66429;SDS011;53242;51.694;10.006;2023-08-31T08:42:28;6.82;;;3.47;;
66429;SDS011;53242;51.694;10.006;2023-08-31T08:44:52;6.90;;;3.15;;
66429;SDS011;53242;51.694;10.006;2023-08-31T08:47:14;6.68;;;3.40;;
66429;SDS011;53242;51.694;10.006;2023-08-31T08:49:38;7.35;;;2.72;;
66429;SDS011;53242;51.694;10.006;2023-08-31T08:52:00;7.32;;;2.50;;
66429;SDS011;53242;51.694;10.006;2023-08-31T08:54:23;7.32;;;2.47;;
66429;SDS011;53242;51.694;10.006;2023-08-31T08:56:46;6.50;;;2.90;;
66429;SDS011;53242;51.694;10.006;2023-08-31T08:59:08;5.55;;;2.80;;
66429;SDS011;53242;51.694;10.006;2023-08-31T09:01:34;6.47;;;2.45;;
66429;SDS011;53242;51.694;10.006;2023-08-31T09:03:57;5.38;;;2.60;;
66429;SDS011;53242;51.694;10.006;2023-08-31T09:06:19;6.97;;;2.67;;
66429;SDS011;53242;51.694;10.006;2023-08-31T09:08:42;5.05;;;2.33;;
66429;SDS011;53242;51.694;10.006;2023-08-31T09:11:05;6.00;;;2.30;;
66429;SDS011;53242;51.694;10.006;2023-08-31T09:13:28;7.15;;;2.45;;
66429;SDS011;53242;51.694;10.006;2023-08-31T09:15:51;5.00;;;2.35;;
66429;SDS011;53242;51.694;10.006;2023-08-31T09:18:22;3.80;;;1.98;;
66429;SDS011;53242;51.694;10.006;2023-08-31T09:20:49;3.75;;;2.13;;
66429;SDS011;53242;51.694;10.006;2023-08-31T09:23:12;4.85;;;1.90;;
66429;SDS011;53242;51.694;10.006;2023-08-31T09:25:42;3.95;;;2.00;;
66429;SDS011;53242;51.694;10.006;2023-08-31T09:28:18;3.58;;;1.80;;
66429;SDS011;53242;51.694;10.006;2023-08-31T09:30:42;2.60;;;1.67;;
66429;SDS011;53242;51.694;10.006;2023-08-31T09:33:06;3.63;;;1.70;;
66429;SDS011;53242;51.694;10.006;2023-08-31T09:35:30;4.18;;;1.70;;
66429;SDS011;53242;51.694;10.006;2023-08-31T09:37:54;3.92;;;1.40;;
66429;SDS011;53242;51.694;10.006;2023-08-31T09:40:19;3.55;;;1.73;;
66429;SDS011;53242;51.694;10.006;2023-08-31T09:42:41;2.38;;;1.50;;
66429;SDS011;53242;51.694;10.006;2023-08-31T09:45:04;3.60;;;1.83;;
66429;SDS011;53242;51.694;10.006;2023-08-31T09:47:27;2.88;;;1.73;;
66429;SDS011;53242;51.694;10.006;2023-08-31T09:49:49;2.17;;;0.95;;
66429;SDS011;53242;51.694;10.006;2023-08-31T09:52:12;2.45;;;1.52;;
66429;SDS011;53242;51.694;10.006;2023-08-31T09:54:35;3.13;;;1.38;;
66429;SDS011;53242;51.694;10.006;2023-08-31T09:59:22;2.65;;;1.50;;
66429;SDS011;53242;51.694;10.006;2023-08-31T10:01:45;4.00;;;1.40;;
66429;SDS011;53242;51.694;10.006;2023-08-31T10:04:08;3.20;;;1.50;;
66429;SDS011;53242;51.694;10.006;2023-08-31T10:06:31;5.00;;;1.50;;
66429;SDS011;53242;51.694;10.006;2023-08-31T10:08:54;2.88;;;1.40;;
66429;SDS011;53242;51.694;10.006;2023-08-31T10:11:16;3.05;;;1.60;;
66429;SDS011;53242;51.694;10.006;2023-08-31T10:13:43;2.95;;;1.30;;
66429;SDS011;53242;51.694;10.006;2023-08-31T10:16:07;4.28;;;1.58;;
66429;SDS011;53242;51.694;10.006;2023-08-31T10:18:30;4.57;;;1.63;;
66429;SDS011;53242;51.694;10.006;2023-08-31T10:20:53;3.83;;;1.48;;
66429;SDS011;53242;51.694;10.006;2023-08-31T10:23:15;3.33;;;1.70;;
66429;SDS011;53242;51.694;10.006;2023-08-31T10:28:22;5.18;;;2.40;;
66429;SDS011;53242;51.694;10.006;2023-08-31T10:33:28;5.85;;;2.13;;
66429;SDS011;53242;51.694;10.006;2023-08-31T10:35:51;5.15;;;2.30;;
66429;SDS011;53242;51.694;10.006;2023-08-31T10:38:27;4.80;;;2.10;;
66429;SDS011;53242;51.694;10.006;2023-08-31T10:46:14;5.10;;;2.08;;
66429;SDS011;53242;51.694;10.006;2023-08-31T10:48:48;5.78;;;2.30;;
66429;SDS011;53242;51.694;10.006;2023-08-31T10:51:15;5.50;;;2.20;;
66429;SDS011;53242;51.694;10.006;2023-08-31T10:53:38;4.28;;;2.13;;
66429;SDS011;53242;51.694;10.006;2023-08-31T10:56:00;3.80;;;2.05;;
66429;SDS011;53242;51.694;10.006;2023-08-31T10:58:31;4.35;;;2.10;;
66429;SDS011;53242;51.694;10.006;2023-08-31T11:00:53;5.25;;;2.20;;
66429;SDS011;53242;51.694;10.006;2023-08-31T11:03:18;5.85;;;2.25;;
66429;SDS011;53242;51.694;10.006;2023-08-31T11:05:53;8.80;;;3.38;;
66429;SDS011;53242;51.694;10.006;2023-08-31T11:08:16;5.85;;;2.60;;
66429;SDS011;53242;51.694;10.006;2023-08-31T11:10:38;6.28;;;2.38;;
66429;SDS011;53242;51.694;10.006;2023-08-31T11:13:00;4.45;;;2.05;;
66429;SDS011;53242;51.694;10.006;2023-08-31T11:15:25;3.03;;;1.65;;
66429;SDS011;53242;51.694;10.006;2023-08-31T11:17:50;2.42;;;1.40;;
66429;SDS011;53242;51.694;10.006;2023-08-31T11:20:17;4.55;;;1.60;;
66429;SDS011;53242;51.694;10.006;2023-08-31T11:22:40;4.30;;;1.30;;
66429;SDS011;53242;51.694;10.006;2023-08-31T11:25:03;2.13;;;1.33;;
66429;SDS011;53242;51.694;10.006;2023-08-31T11:27:26;3.05;;;1.30;;
66429;SDS011;53242;51.694;10.006;2023-08-31T11:29:50;3.60;;;1.52;;
66429;SDS011;53242;51.694;10.006;2023-08-31T11:32:12;3.22;;;1.50;;
66429;SDS011;53242;51.694;10.006;2023-08-31T11:34:35;3.78;;;1.70;;
66429;SDS011;53242;51.694;10.006;2023-08-31T11:36:58;2.13;;;1.48;;
66429;SDS011;53242;51.694;10.006;2023-08-31T11:39:21;1.88;;;1.23;;
66429;SDS011;53242;51.694;10.006;2023-08-31T11:41:44;1.63;;;1.10;;
66429;SDS011;53242;51.694;10.006;2023-08-31T11:44:07;3.72;;;1.20;;
66429;SDS011;53242;51.694;10.006;2023-08-31T11:46:31;4.90;;;1.60;;
66429;SDS011;53242;51.694;10.006;2023-08-31T11:48:53;2.53;;;1.30;;
66429;SDS011;53242;51.694;10.006;2023-08-31T11:51:16;1.80;;;1.00;;
66429;SDS011;53242;51.694;10.006;2023-08-31T11:53:41;4.38;;;1.10;;
66429;SDS011;53242;51.694;10.006;2023-08-31T11:56:03;2.67;;;1.20;;
66429;SDS011;53242;51.694;10.006;2023-08-31T11:58:26;3.13;;;1.30;;
66429;SDS011;53242;51.694;10.006;2023-08-31T12:00:58;3.13;;;1.40;;
66429;SDS011;53242;51.694;10.006;2023-08-31T12:03:21;3.95;;;1.50;;
66429;SDS011;53242;51.694;10.006;2023-08-31T12:05:47;2.35;;;1.25;;
66429;SDS011;53242;51.694;10.006;2023-08-31T12:08:10;2.55;;;1.35;;
66429;SDS011;53242;51.694;10.006;2023-08-31T12:10:33;3.50;;;1.58;;
66429;SDS011;53242;51.694;10.006;2023-08-31T12:13:08;3.70;;;1.50;;
66429;SDS011;53242;51.694;10.006;2023-08-31T12:15:31;1.98;;;1.30;;
66429;SDS011;53242;51.694;10.006;2023-08-31T12:17:53;3.88;;;1.20;;
66429;SDS011;53242;51.694;10.006;2023-08-31T12:20:17;1.98;;;1.48;;
66429;SDS011;53242;51.694;10.006;2023-08-31T12:22:40;3.42;;;1.40;;
66429;SDS011;53242;51.694;10.006;2023-08-31T12:25:02;2.45;;;1.63;;
66429;SDS011;53242;51.694;10.006;2023-08-31T12:27:24;3.67;;;1.63;;
66429;SDS011;53242;51.694;10.006;2023-08-31T12:29:48;2.92;;;1.80;;
66429;SDS011;53242;51.694;10.006;2023-08-31T12:32:12;2.05;;;1.50;;
66429;SDS011;53242;51.694;10.006;2023-08-31T12:34:34;3.17;;;1.70;;
66429;SDS011;53242;51.694;10.006;2023-08-31T12:36:56;3.85;;;1.70;;
66429;SDS011;53242;51.694;10.006;2023-08-31T12:39:22;3.20;;;1.52;;
66429;SDS011;53242;51.694;10.006;2023-08-31T12:41:44;5.20;;;1.45;;
66429;SDS011;53242;51.694;10.006;2023-08-31T12:44:07;4.88;;;1.75;;
66429;SDS011;53242;51.694;10.006;2023-08-31T12:46:30;4.15;;;1.50;;
66429;SDS011;53242;51.694;10.006;2023-08-31T12:48:55;6.15;;;2.58;;
66429;SDS011;53242;51.694;10.006;2023-08-31T12:51:18;3.28;;;1.48;;
66429;SDS011;53242;51.694;10.006;2023-08-31T12:53:40;4.78;;;1.92;;
66429;SDS011;53242;51.694;10.006;2023-08-31T12:56:03;3.10;;;1.30;;
66429;SDS011;53242;51.694;10.006;2023-08-31T12:58:25;2.40;;;1.55;;
66429;SDS011;53242;51.694;10.006;2023-08-31T13:00:48;3.17;;;1.40;;
66429;SDS011;53242;51.694;10.006;2023-08-31T13:05:38;3.65;;;1.52;;
66429;SDS011;53242;51.694;10.006;2023-08-31T13:08:02;3.05;;;1.50;;
66429;SDS011;53242;51.694;10.006;2023-08-31T13:10:24;3.00;;;1.13;;
66429;SDS011;53242;51.694;10.006;2023-08-31T13:12:47;2.75;;;1.58;;
66429;SDS011;53242;51.694;10.006;2023-08-31T13:15:09;2.97;;;1.50;;
66429;SDS011;53242;51.694;10.006;2023-08-31T13:17:32;5.25;;;2.17;;
66429;SDS011;53242;51.694;10.006;2023-08-31T13:19:55;3.55;;;2.05;;
66429;SDS011;53242;51.694;10.006;2023-08-31T13:22:19;3.80;;;1.58;;
66429;SDS011;53242;51.694;10.006;2023-08-31T13:24:41;8.27;;;1.90;;
66429;SDS011;53242;51.694;10.006;2023-08-31T13:27:04;4.97;;;1.55;;
66429;SDS011;53242;51.694;10.006;2023-08-31T13:29:26;5.07;;;2.00;;
66429;SDS011;53242;51.694;10.006;2023-08-31T13:31:49;3.15;;;1.60;;
66429;SDS011;53242;51.694;10.006;2023-08-31T13:34:11;3.38;;;1.50;;
66429;SDS011;53242;51.694;10.006;2023-08-31T13:36:36;4.13;;;1.60;;
66429;SDS011;53242;51.694;10.006;2023-08-31T13:38:58;2.22;;;1.40;;
66429;SDS011;53242;51.694;10.006;2023-08-31T13:41:20;2.85;;;1.67;;
66429;SDS011;53242;51.694;10.006;2023-08-31T13:43:43;3.28;;;1.60;;
66429;SDS011;53242;51.694;10.006;2023-08-31T13:46:06;2.40;;;1.40;;
66429;SDS011;53242;51.694;10.006;2023-08-31T13:48:28;2.95;;;1.27;;
66429;SDS011;53242;51.694;10.006;2023-08-31T13:50:51;3.33;;;1.33;;
66429;SDS011;53242;51.694;10.006;2023-08-31T13:53:14;3.20;;;1.40;;
66429;SDS011;53242;51.694;10.006;2023-08-31T13:55:36;2.05;;;1.17;;
66429;SDS011;53242;51.694;10.006;2023-08-31T13:58:03;2.72;;;1.45;;
66429;SDS011;53242;51.694;10.006;2023-08-31T14:00:28;3.55;;;1.40;;
66429;SDS011;53242;51.694;10.006;2023-08-31T14:02:50;3.75;;;1.00;;
66429;SDS011;53242;51.694;10.006;2023-08-31T14:05:12;2.20;;;1.30;;
66429;SDS011;53242;51.694;10.006;2023-08-31T14:07:36;1.27;;;1.13;;
66429;SDS011;53242;51.694;10.006;2023-08-31T14:09:59;3.25;;;1.30;;
66429;SDS011;53242;51.694;10.006;2023-08-31T14:12:21;1.40;;;1.20;;
66429;SDS011;53242;51.694;10.006;2023-08-31T14:14:44;1.85;;;1.30;;
66429;SDS011;53242;51.694;10.006;2023-08-31T14:17:08;3.13;;;1.30;;
66429;SDS011;53242;51.694;10.006;2023-08-31T14:19:31;5.80;;;1.92;;
66429;SDS011;53242;51.694;10.006;2023-08-31T14:24:17;3.27;;;1.40;;
66429;SDS011;53242;51.694;10.006;2023-08-31T14:26:39;4.88;;;1.38;;
66429;SDS011;53242;51.694;10.006;2023-08-31T14:29:02;3.22;;;1.58;;
66429;SDS011;53242;51.694;10.006;2023-08-31T14:31:24;2.63;;;1.40;;
66429;SDS011;53242;51.694;10.006;2023-08-31T14:33:46;2.92;;;1.15;;
66429;SDS011;53242;51.694;10.006;2023-08-31T14:36:09;5.20;;;1.63;;
66429;SDS011;53242;51.694;10.006;2023-08-31T14:38:32;2.85;;;1.90;;
66429;SDS011;53242;51.694;10.006;2023-08-31T14:40:54;1.95;;;1.10;;
66429;SDS011;53242;51.694;10.006;2023-08-31T14:43:16;6.07;;;3.33;;
66429;SDS011;53242;51.694;10.006;2023-08-31T14:45:39;5.35;;;2.45;;